sensor_id;sensor_type;location;lat;lon;timestamp;temperature;humidity
60701;DHT22;46541;49.894;10.886;2022-08-04T00:01:34;23.40;85.60
60701;DHT22;46541;49.894;10.886;2022-08-04T00:04:31;23.40;84.80
60701;DHT22;46541;49.894;10.886;2022-08-04T00:07:15;23.40;86.50
60701;DHT22;46541;49.894;10.886;2022-08-04T00:09:52;23.40;87.00
60701;DHT22;46541;49.894;10.886;2022-08-04T00:12:21;23.30;87.40
60701;DHT22;46541;49.894;10.886;2022-08-04T00:14:57;23.30;87.70
60701;DHT22;46541;49.894;10.886;2022-08-04T00:17:31;23.20;88.20
60701;DHT22;46541;49.894;10.886;2022-08-04T00:20:02;23.20;86.90
60701;DHT22;46541;49.894;10.886;2022-08-04T00:22:30;23.20;89.30
60701;DHT22;46541;49.894;10.886;2022-08-04T00:25:01;23.10;88.70
60701;DHT22;46541;49.894;10.886;2022-08-04T00:27:29;23.10;89.40
60701;DHT22;46541;49.894;10.886;2022-08-04T00:29:57;23.00;89.70
60701;DHT22;46541;49.894;10.886;2022-08-04T00:32:25;22.90;90.20
60701;DHT22;46541;49.894;10.886;2022-08-04T00:35:00;22.90;90.50
60701;DHT22;46541;49.894;10.886;2022-08-04T00:37:27;22.80;90.40
60701;DHT22;46541;49.894;10.886;2022-08-04T00:39:55;22.90;90.50
60701;DHT22;46541;49.894;10.886;2022-08-04T00:42:41;22.80;90.40
60701;DHT22;46541;49.894;10.886;2022-08-04T00:45:48;22.80;90.80
60701;DHT22;46541;49.894;10.886;2022-08-04T00:49:21;22.80;90.10
60701;DHT22;46541;49.894;10.886;2022-08-04T01:01:01;22.60;90.60
60701;DHT22;46541;49.894;10.886;2022-08-04T01:14:57;22.50;91.00
60701;DHT22;46541;49.894;10.886;2022-08-04T01:20:09;22.50;90.40
60701;DHT22;46541;49.894;10.886;2022-08-04T01:25:35;22.50;90.50
60701;DHT22;46541;49.894;10.886;2022-08-04T01:30:56;22.40;91.20
60701;DHT22;46541;49.894;10.886;2022-08-04T01:33:27;22.40;91.50
60701;DHT22;46541;49.894;10.886;2022-08-04T01:35:58;22.30;91.40
60701;DHT22;46541;49.894;10.886;2022-08-04T01:38:28;22.30;91.60
60701;DHT22;46541;49.894;10.886;2022-08-04T01:40:59;22.30;92.20
60701;DHT22;46541;49.894;10.886;2022-08-04T01:43:30;22.20;92.00
60701;DHT22;46541;49.894;10.886;2022-08-04T01:46:00;22.10;91.50
60701;DHT22;46541;49.894;10.886;2022-08-04T01:48:28;22.10;91.70
60701;DHT22;46541;49.894;10.886;2022-08-04T01:51:04;22.10;91.80
60701;DHT22;46541;49.894;10.886;2022-08-04T01:53:37;22.00;92.00
60701;DHT22;46541;49.894;10.886;2022-08-04T01:56:08;22.00;92.00
60701;DHT22;46541;49.894;10.886;2022-08-04T01:58:36;22.00;92.30
60701;DHT22;46541;49.894;10.886;2022-08-04T02:01:09;21.90;92.30
60701;DHT22;46541;49.894;10.886;2022-08-04T02:03:43;21.90;92.40
60701;DHT22;46541;49.894;10.886;2022-08-04T02:07:07;21.80;92.80
60701;DHT22;46541;49.894;10.886;2022-08-04T02:10:07;21.80;92.80
60701;DHT22;46541;49.894;10.886;2022-08-04T02:16:06;21.70;93.70
60701;DHT22;46541;49.894;10.886;2022-08-04T02:21:43;21.60;93.60
60701;DHT22;46541;49.894;10.886;2022-08-04T02:24:15;21.60;93.80
60701;DHT22;46541;49.894;10.886;2022-08-04T02:26:46;21.60;93.70
60701;DHT22;46541;49.894;10.886;2022-08-04T02:29:45;21.60;93.90
60701;DHT22;46541;49.894;10.886;2022-08-04T02:32:35;21.50;94.10
60701;DHT22;46541;49.894;10.886;2022-08-04T02:35:06;21.50;94.20
60701;DHT22;46541;49.894;10.886;2022-08-04T02:37:34;21.50;94.50
60701;DHT22;46541;49.894;10.886;2022-08-04T02:40:04;21.40;94.60
60701;DHT22;46541;49.894;10.886;2022-08-04T02:42:32;21.50;95.00
60701;DHT22;46541;49.894;10.886;2022-08-04T02:44:59;21.50;95.00
60701;DHT22;46541;49.894;10.886;2022-08-04T02:47:27;21.50;95.00
60701;DHT22;46541;49.894;10.886;2022-08-04T02:50:17;21.50;95.30
60701;DHT22;46541;49.894;10.886;2022-08-04T02:52:55;21.50;95.30
60701;DHT22;46541;49.894;10.886;2022-08-04T02:55:24;21.50;95.70
60701;DHT22;46541;49.894;10.886;2022-08-04T02:57:53;21.50;95.60
60701;DHT22;46541;49.894;10.886;2022-08-04T03:00:21;21.50;96.10
60701;DHT22;46541;49.894;10.886;2022-08-04T03:08:59;21.50;95.90
60701;DHT22;46541;49.894;10.886;2022-08-04T03:17:37;21.50;96.40
60701;DHT22;46541;49.894;10.886;2022-08-04T03:42:20;21.50;97.80
60701;DHT22;46541;49.894;10.886;2022-08-04T03:45:01;21.40;98.00
60701;DHT22;46541;49.894;10.886;2022-08-04T04:27:14;21.50;98.20
60701;DHT22;46541;49.894;10.886;2022-08-04T04:30:04;21.50;97.70
60701;DHT22;46541;49.894;10.886;2022-08-04T04:32:56;21.50;97.50
60701;DHT22;46541;49.894;10.886;2022-08-04T04:36:10;21.50;97.50
60701;DHT22;46541;49.894;10.886;2022-08-04T04:49:36;21.60;98.20
60701;DHT22;46541;49.894;10.886;2022-08-04T04:54:56;21.60;98.00
60701;DHT22;46541;49.894;10.886;2022-08-04T04:57:33;21.60;98.20
60701;DHT22;46541;49.894;10.886;2022-08-04T05:00:22;21.70;98.20
60701;DHT22;46541;49.894;10.886;2022-08-04T05:11:18;21.70;98.00
60701;DHT22;46541;49.894;10.886;2022-08-04T05:13:58;21.80;98.20
60701;DHT22;46541;49.894;10.886;2022-08-04T05:16:51;21.80;98.00
60701;DHT22;46541;49.894;10.886;2022-08-04T05:19:25;21.80;97.70
60701;DHT22;46541;49.894;10.886;2022-08-04T05:25:03;21.80;97.80
60701;DHT22;46541;49.894;10.886;2022-08-04T05:27:39;21.80;97.60
60701;DHT22;46541;49.894;10.886;2022-08-04T05:30:07;21.90;98.00
60701;DHT22;46541;49.894;10.886;2022-08-04T05:32:48;21.90;97.90
60701;DHT22;46541;49.894;10.886;2022-08-04T05:35:32;21.90;97.70
60701;DHT22;46541;49.894;10.886;2022-08-04T05:38:22;22.00;97.30
60701;DHT22;46541;49.894;10.886;2022-08-04T05:40:52;22.10;96.30
60701;DHT22;46541;49.894;10.886;2022-08-04T05:43:21;22.20;96.50
60701;DHT22;46541;49.894;10.886;2022-08-04T05:45:50;22.30;96.40
60701;DHT22;46541;49.894;10.886;2022-08-04T05:48:17;22.40;96.40
60701;DHT22;46541;49.894;10.886;2022-08-04T05:50:45;22.50;96.20
60701;DHT22;46541;49.894;10.886;2022-08-04T05:53:14;22.60;95.70
60701;DHT22;46541;49.894;10.886;2022-08-04T05:55:43;22.60;96.20
60701;DHT22;46541;49.894;10.886;2022-08-04T05:58:24;22.70;95.50
60701;DHT22;46541;49.894;10.886;2022-08-04T06:00:53;22.90;95.30
60701;DHT22;46541;49.894;10.886;2022-08-04T06:03:22;23.00;95.30
60701;DHT22;46541;49.894;10.886;2022-08-04T06:05:50;23.10;94.40
60701;DHT22;46541;49.894;10.886;2022-08-04T06:08:17;23.20;95.10
60701;DHT22;46541;49.894;10.886;2022-08-04T06:10:45;23.30;95.10
60701;DHT22;46541;49.894;10.886;2022-08-04T06:13:16;23.40;94.60
60701;DHT22;46541;49.894;10.886;2022-08-04T06:16:05;23.50;93.90
60701;DHT22;46541;49.894;10.886;2022-08-04T06:18:44;23.60;94.70
60701;DHT22;46541;49.894;10.886;2022-08-04T06:21:38;23.70;93.90
60701;DHT22;46541;49.894;10.886;2022-08-04T06:24:09;23.70;94.10
60701;DHT22;46541;49.894;10.886;2022-08-04T06:26:37;23.80;93.80
60701;DHT22;46541;49.894;10.886;2022-08-04T06:29:06;24.00;94.10
60701;DHT22;46541;49.894;10.886;2022-08-04T06:31:43;24.10;93.10
60701;DHT22;46541;49.894;10.886;2022-08-04T06:34:43;24.20;93.50
60701;DHT22;46541;49.894;10.886;2022-08-04T06:37:10;24.30;92.20
60701;DHT22;46541;49.894;10.886;2022-08-04T06:39:58;24.40;92.70
60701;DHT22;46541;49.894;10.886;2022-08-04T06:42:26;24.60;92.70
60701;DHT22;46541;49.894;10.886;2022-08-04T06:44:56;24.70;92.50
60701;DHT22;46541;49.894;10.886;2022-08-04T06:47:24;24.70;92.70
60701;DHT22;46541;49.894;10.886;2022-08-04T06:49:54;24.80;91.70
60701;DHT22;46541;49.894;10.886;2022-08-04T06:52:43;24.90;91.20
60701;DHT22;46541;49.894;10.886;2022-08-04T06:55:11;25.00;90.40
60701;DHT22;46541;49.894;10.886;2022-08-04T06:57:39;25.20;91.00
60701;DHT22;46541;49.894;10.886;2022-08-04T07:00:12;25.40;90.90
60701;DHT22;46541;49.894;10.886;2022-08-04T07:02:51;25.50;90.60
60701;DHT22;46541;49.894;10.886;2022-08-04T07:05:19;25.70;90.70
60701;DHT22;46541;49.894;10.886;2022-08-04T07:07:46;25.90;89.90
60701;DHT22;46541;49.894;10.886;2022-08-04T07:10:27;26.00;88.90
60701;DHT22;46541;49.894;10.886;2022-08-04T07:12:56;26.20;88.50
60701;DHT22;46541;49.894;10.886;2022-08-04T07:15:24;26.40;85.70
60701;DHT22;46541;49.894;10.886;2022-08-04T07:17:53;26.50;84.80
60701;DHT22;46541;49.894;10.886;2022-08-04T07:20:20;26.60;85.20
60701;DHT22;46541;49.894;10.886;2022-08-04T07:23:02;26.70;83.90
60701;DHT22;46541;49.894;10.886;2022-08-04T07:25:30;26.80;82.40
60701;DHT22;46541;49.894;10.886;2022-08-04T07:28:20;27.00;80.80
60701;DHT22;46541;49.894;10.886;2022-08-04T07:30:48;27.10;79.10
60701;DHT22;46541;49.894;10.886;2022-08-04T07:33:16;27.20;78.80
60701;DHT22;46541;49.894;10.886;2022-08-04T07:35:49;27.30;77.20
60701;DHT22;46541;49.894;10.886;2022-08-04T07:38:40;27.40;77.20
60701;DHT22;46541;49.894;10.886;2022-08-04T07:41:21;27.60;77.10
60701;DHT22;46541;49.894;10.886;2022-08-04T07:44:04;27.80;75.90
60701;DHT22;46541;49.894;10.886;2022-08-04T07:46:32;27.90;76.20
60701;DHT22;46541;49.894;10.886;2022-08-04T07:49:00;28.10;75.70
60701;DHT22;46541;49.894;10.886;2022-08-04T07:51:28;28.20;73.90
60701;DHT22;46541;49.894;10.886;2022-08-04T07:53:57;28.30;73.90
60701;DHT22;46541;49.894;10.886;2022-08-04T07:56:25;28.40;72.80
60701;DHT22;46541;49.894;10.886;2022-08-04T07:58:53;28.60;72.60
60701;DHT22;46541;49.894;10.886;2022-08-04T08:01:22;28.80;72.40
60701;DHT22;46541;49.894;10.886;2022-08-04T08:03:52;28.80;72.50
60701;DHT22;46541;49.894;10.886;2022-08-04T08:06:19;29.00;71.30
60701;DHT22;46541;49.894;10.886;2022-08-04T08:09:05;29.10;71.90
60701;DHT22;46541;49.894;10.886;2022-08-04T08:11:41;29.20;69.30
60701;DHT22;46541;49.894;10.886;2022-08-04T08:14:29;29.30;69.60
60701;DHT22;46541;49.894;10.886;2022-08-04T08:16:58;29.50;69.40
60701;DHT22;46541;49.894;10.886;2022-08-04T08:19:25;29.60;68.60
60701;DHT22;46541;49.894;10.886;2022-08-04T08:21:52;29.70;66.90
60701;DHT22;46541;49.894;10.886;2022-08-04T08:24:27;29.90;65.80
60701;DHT22;46541;49.894;10.886;2022-08-04T08:26:54;30.00;65.10
60701;DHT22;46541;49.894;10.886;2022-08-04T08:29:23;30.20;64.60
60701;DHT22;46541;49.894;10.886;2022-08-04T08:31:51;30.20;63.50
60701;DHT22;46541;49.894;10.886;2022-08-04T08:34:22;30.40;63.20
60701;DHT22;46541;49.894;10.886;2022-08-04T08:37:04;30.50;62.20
60701;DHT22;46541;49.894;10.886;2022-08-04T08:39:54;30.70;58.00
60701;DHT22;46541;49.894;10.886;2022-08-04T08:42:46;30.80;60.20
60701;DHT22;46541;49.894;10.886;2022-08-04T08:45:28;30.90;59.60
60701;DHT22;46541;49.894;10.886;2022-08-04T08:54:22;31.30;57.50
60701;DHT22;46541;49.894;10.886;2022-08-04T08:57:05;31.40;57.30
60701;DHT22;46541;49.894;10.886;2022-08-04T09:05:12;31.70;53.50
60701;DHT22;46541;49.894;10.886;2022-08-04T09:07:53;31.80;53.60
60701;DHT22;46541;49.894;10.886;2022-08-04T09:10:32;32.00;55.20
60701;DHT22;46541;49.894;10.886;2022-08-04T09:16:11;32.30;54.90
60701;DHT22;46541;49.894;10.886;2022-08-04T09:18:55;32.40;54.60
60701;DHT22;46541;49.894;10.886;2022-08-04T09:21:41;32.60;53.90
60701;DHT22;46541;49.894;10.886;2022-08-04T09:24:15;32.50;54.10
60701;DHT22;46541;49.894;10.886;2022-08-04T09:27:20;32.50;54.10
60701;DHT22;46541;49.894;10.886;2022-08-04T09:30:07;32.50;53.70
60701;DHT22;46541;49.894;10.886;2022-08-04T09:32:46;32.50;54.10
60701;DHT22;46541;49.894;10.886;2022-08-04T09:35:41;32.70;54.40
60701;DHT22;46541;49.894;10.886;2022-08-04T09:41:03;32.80;53.80
60701;DHT22;46541;49.894;10.886;2022-08-04T09:44:25;33.00;53.40
60701;DHT22;46541;49.894;10.886;2022-08-04T09:50:41;33.50;52.90
60701;DHT22;46541;49.894;10.886;2022-08-04T10:01:10;33.60;51.30
60701;DHT22;46541;49.894;10.886;2022-08-04T10:03:44;33.70;51.70
60701;DHT22;46541;49.894;10.886;2022-08-04T10:09:17;33.90;50.20
60701;DHT22;46541;49.894;10.886;2022-08-04T10:14:35;33.90;50.30
60701;DHT22;46541;49.894;10.886;2022-08-04T10:20:09;34.00;50.00
60701;DHT22;46541;49.894;10.886;2022-08-04T10:22:42;34.00;49.60
60701;DHT22;46541;49.894;10.886;2022-08-04T10:25:44;34.00;49.50
60701;DHT22;46541;49.894;10.886;2022-08-04T10:28:49;34.10;49.70
60701;DHT22;46541;49.894;10.886;2022-08-04T10:31:27;34.10;49.60
60701;DHT22;46541;49.894;10.886;2022-08-04T10:34:19;34.10;49.10
60701;DHT22;46541;49.894;10.886;2022-08-04T10:40:19;34.20;49.60
60701;DHT22;46541;49.894;10.886;2022-08-04T10:48:43;34.30;48.90
60701;DHT22;46541;49.894;10.886;2022-08-04T10:57:32;34.30;48.40
60701;DHT22;46541;49.894;10.886;2022-08-04T11:00:08;34.30;48.20
60701;DHT22;46541;49.894;10.886;2022-08-04T11:11:10;34.40;47.40
60701;DHT22;46541;49.894;10.886;2022-08-04T11:13:46;34.40;47.60
60701;DHT22;46541;49.894;10.886;2022-08-04T11:16:28;34.50;46.70
60701;DHT22;46541;49.894;10.886;2022-08-04T11:21:36;34.40;46.70
60701;DHT22;46541;49.894;10.886;2022-08-04T11:24:17;34.50;47.10
60701;DHT22;46541;49.894;10.886;2022-08-04T11:26:58;34.50;46.50
60701;DHT22;46541;49.894;10.886;2022-08-04T11:32:09;34.50;46.70
60701;DHT22;46541;49.894;10.886;2022-08-04T11:34:51;34.60;46.30
60701;DHT22;46541;49.894;10.886;2022-08-04T11:39:59;34.60;46.20
60701;DHT22;46541;49.894;10.886;2022-08-04T11:42:37;34.50;46.60
60701;DHT22;46541;49.894;10.886;2022-08-04T11:45:08;34.50;46.80
60701;DHT22;46541;49.894;10.886;2022-08-04T11:50:17;34.50;46.20
60701;DHT22;46541;49.894;10.886;2022-08-04T11:52:47;34.50;46.80
60701;DHT22;46541;49.894;10.886;2022-08-04T11:55:16;34.50;46.40
60701;DHT22;46541;49.894;10.886;2022-08-04T11:57:47;34.50;47.00
60701;DHT22;46541;49.894;10.886;2022-08-04T12:00:20;34.50;46.90
60701;DHT22;46541;49.894;10.886;2022-08-04T12:03:23;34.60;46.50
60701;DHT22;46541;49.894;10.886;2022-08-04T12:09:08;34.50;46.60
60701;DHT22;46541;49.894;10.886;2022-08-04T12:11:45;34.40;46.20
60701;DHT22;46541;49.894;10.886;2022-08-04T12:19:46;34.30;46.70
60701;DHT22;46541;49.894;10.886;2022-08-04T12:22:34;34.30;47.20
60701;DHT22;46541;49.894;10.886;2022-08-04T12:25:09;34.30;46.30
60701;DHT22;46541;49.894;10.886;2022-08-04T12:28:04;34.40;46.90
60701;DHT22;46541;49.894;10.886;2022-08-04T12:30:36;34.30;45.50
60701;DHT22;46541;49.894;10.886;2022-08-04T12:33:33;34.40;46.30
60701;DHT22;46541;49.894;10.886;2022-08-04T12:36:28;34.30;47.30
60701;DHT22;46541;49.894;10.886;2022-08-04T12:39:24;34.20;46.00
60701;DHT22;46541;49.894;10.886;2022-08-04T12:42:14;34.20;46.20
60701;DHT22;46541;49.894;10.886;2022-08-04T12:44:48;34.20;46.50
60701;DHT22;46541;49.894;10.886;2022-08-04T12:47:25;34.20;45.90
60701;DHT22;46541;49.894;10.886;2022-08-04T12:50:04;34.20;45.90
60701;DHT22;46541;49.894;10.886;2022-08-04T12:52:47;34.10;46.50
60701;DHT22;46541;49.894;10.886;2022-08-04T12:55:32;34.10;46.70
60701;DHT22;46541;49.894;10.886;2022-08-04T12:58:02;34.10;46.80
60701;DHT22;46541;49.894;10.886;2022-08-04T13:00:34;34.00;46.20
60701;DHT22;46541;49.894;10.886;2022-08-04T13:03:14;34.00;46.60
60701;DHT22;46541;49.894;10.886;2022-08-04T13:05:43;34.00;46.20
60701;DHT22;46541;49.894;10.886;2022-08-04T13:08:12;33.90;45.30
60701;DHT22;46541;49.894;10.886;2022-08-04T13:10:41;33.90;46.30
60701;DHT22;46541;49.894;10.886;2022-08-04T13:13:24;33.80;46.30
60701;DHT22;46541;49.894;10.886;2022-08-04T13:18:23;33.90;46.00
60701;DHT22;46541;49.894;10.886;2022-08-04T13:21:19;34.00;46.00
60701;DHT22;46541;49.894;10.886;2022-08-04T13:23:51;34.10;46.30
60701;DHT22;46541;49.894;10.886;2022-08-04T13:26:59;34.10;46.00
60701;DHT22;46541;49.894;10.886;2022-08-04T13:29:41;34.10;44.70
60701;DHT22;46541;49.894;10.886;2022-08-04T13:32:29;34.10;44.50
60701;DHT22;46541;49.894;10.886;2022-08-04T13:34:59;34.10;45.10
60701;DHT22;46541;49.894;10.886;2022-08-04T13:37:33;34.10;45.20
60701;DHT22;46541;49.894;10.886;2022-08-04T13:40:04;34.20;44.80
60701;DHT22;46541;49.894;10.886;2022-08-04T13:42:33;34.20;45.40
60701;DHT22;46541;49.894;10.886;2022-08-04T13:45:02;34.10;45.10
60701;DHT22;46541;49.894;10.886;2022-08-04T13:47:35;34.10;44.30
60701;DHT22;46541;49.894;10.886;2022-08-04T13:52:39;33.90;45.50
60701;DHT22;46541;49.894;10.886;2022-08-04T13:55:07;33.80;45.10
60701;DHT22;46541;49.894;10.886;2022-08-04T13:57:43;33.70;45.40
60701;DHT22;46541;49.894;10.886;2022-08-04T14:00:10;33.70;45.20
60701;DHT22;46541;49.894;10.886;2022-08-04T14:05:34;33.60;45.00
60701;DHT22;46541;49.894;10.886;2022-08-04T14:08:25;33.60;45.00
60701;DHT22;46541;49.894;10.886;2022-08-04T14:10:57;33.60;45.20
60701;DHT22;46541;49.894;10.886;2022-08-04T14:13:32;33.60;45.30
60701;DHT22;46541;49.894;10.886;2022-08-04T14:16:19;33.60;44.40
60701;DHT22;46541;49.894;10.886;2022-08-04T14:18:47;33.60;44.50
60701;DHT22;46541;49.894;10.886;2022-08-04T14:21:23;33.60;44.40
60701;DHT22;46541;49.894;10.886;2022-08-04T14:23:53;33.50;44.70
60701;DHT22;46541;49.894;10.886;2022-08-04T14:26:29;33.50;45.00
60701;DHT22;46541;49.894;10.886;2022-08-04T14:29:35;33.50;44.80
60701;DHT22;46541;49.894;10.886;2022-08-04T14:32:05;33.50;44.10
60701;DHT22;46541;49.894;10.886;2022-08-04T14:34:46;33.50;45.10
60701;DHT22;46541;49.894;10.886;2022-08-04T14:37:17;33.40;45.20
60701;DHT22;46541;49.894;10.886;2022-08-04T14:39:49;33.50;44.70
60701;DHT22;46541;49.894;10.886;2022-08-04T14:42:42;33.50;44.80
60701;DHT22;46541;49.894;10.886;2022-08-04T14:45:09;33.50;44.40
60701;DHT22;46541;49.894;10.886;2022-08-04T14:47:46;33.50;43.80
60701;DHT22;46541;49.894;10.886;2022-08-04T14:50:20;33.50;43.60
60701;DHT22;46541;49.894;10.886;2022-08-04T14:53:09;33.50;44.80
60701;DHT22;46541;49.894;10.886;2022-08-04T14:55:38;33.50;44.40
60701;DHT22;46541;49.894;10.886;2022-08-04T14:58:06;33.40;44.10
60701;DHT22;46541;49.894;10.886;2022-08-04T15:00:56;33.40;44.90
60701;DHT22;46541;49.894;10.886;2022-08-04T15:03:23;33.40;44.10
60701;DHT22;46541;49.894;10.886;2022-08-04T15:05:51;33.40;43.80
60701;DHT22;46541;49.894;10.886;2022-08-04T15:08:29;33.40;44.50
60701;DHT22;46541;49.894;10.886;2022-08-04T15:10:58;33.40;45.10
60701;DHT22;46541;49.894;10.886;2022-08-04T15:13:31;33.40;44.70
60701;DHT22;46541;49.894;10.886;2022-08-04T15:15:58;33.40;45.20
60701;DHT22;46541;49.894;10.886;2022-08-04T15:18:34;33.40;44.50
60701;DHT22;46541;49.894;10.886;2022-08-04T15:21:03;33.40;43.70
60701;DHT22;46541;49.894;10.886;2022-08-04T15:23:30;33.40;44.30
60701;DHT22;46541;49.894;10.886;2022-08-04T15:26:01;33.40;45.30
60701;DHT22;46541;49.894;10.886;2022-08-04T15:28:30;33.40;44.50
60701;DHT22;46541;49.894;10.886;2022-08-04T15:31:00;33.40;43.90
60701;DHT22;46541;49.894;10.886;2022-08-04T15:33:29;33.40;45.10
60701;DHT22;46541;49.894;10.886;2022-08-04T15:36:15;33.40;44.90
60701;DHT22;46541;49.894;10.886;2022-08-04T15:41:51;33.40;44.60
60701;DHT22;46541;49.894;10.886;2022-08-04T15:44:35;33.40;45.10
60701;DHT22;46541;49.894;10.886;2022-08-04T15:47:10;33.30;43.90
60701;DHT22;46541;49.894;10.886;2022-08-04T15:49:38;33.30;44.20
60701;DHT22;46541;49.894;10.886;2022-08-04T15:52:11;33.30;44.50
60701;DHT22;46541;49.894;10.886;2022-08-04T15:54:39;33.20;45.00
60701;DHT22;46541;49.894;10.886;2022-08-04T15:57:56;33.20;44.00
60701;DHT22;46541;49.894;10.886;2022-08-04T16:00:28;33.20;44.30
60701;DHT22;46541;49.894;10.886;2022-08-04T16:16:45;33.20;44.30
60701;DHT22;46541;49.894;10.886;2022-08-04T16:19:30;33.20;44.30
60701;DHT22;46541;49.894;10.886;2022-08-04T16:22:02;33.10;44.60
60701;DHT22;46541;49.894;10.886;2022-08-04T16:27:05;33.00;45.20
60701;DHT22;46541;49.894;10.886;2022-08-04T16:29:40;33.00;45.20
60701;DHT22;46541;49.894;10.886;2022-08-04T16:34:52;32.90;45.60
60701;DHT22;46541;49.894;10.886;2022-08-04T16:37:41;32.90;45.40
60701;DHT22;46541;49.894;10.886;2022-08-04T16:43:08;32.70;44.70
60701;DHT22;46541;49.894;10.886;2022-08-04T16:48:17;32.70;45.00
60701;DHT22;46541;49.894;10.886;2022-08-04T16:50:47;32.70;45.30
60701;DHT22;46541;49.894;10.886;2022-08-04T16:53:15;32.70;45.10
60701;DHT22;46541;49.894;10.886;2022-08-04T16:56:05;32.70;45.60
60701;DHT22;46541;49.894;10.886;2022-08-04T16:58:34;32.60;45.50
60701;DHT22;46541;49.894;10.886;2022-08-04T17:01:10;32.60;45.80
60701;DHT22;46541;49.894;10.886;2022-08-04T17:03:57;32.60;45.20
60701;DHT22;46541;49.894;10.886;2022-08-04T17:06:35;32.50;44.60
60701;DHT22;46541;49.894;10.886;2022-08-04T17:09:16;32.50;47.20
60701;DHT22;46541;49.894;10.886;2022-08-04T17:11:46;32.50;44.80
60701;DHT22;46541;49.894;10.886;2022-08-04T17:14:23;32.50;45.80
60701;DHT22;46541;49.894;10.886;2022-08-04T17:16:52;32.40;44.90
60701;DHT22;46541;49.894;10.886;2022-08-04T17:19:19;32.40;45.40
60701;DHT22;46541;49.894;10.886;2022-08-04T17:22:12;32.40;44.80
60701;DHT22;46541;49.894;10.886;2022-08-04T17:24:39;32.30;45.10
60701;DHT22;46541;49.894;10.886;2022-08-04T17:27:06;32.30;45.40
60701;DHT22;46541;49.894;10.886;2022-08-04T17:29:54;32.30;45.40
60701;DHT22;46541;49.894;10.886;2022-08-04T17:32:21;32.20;46.00
60701;DHT22;46541;49.894;10.886;2022-08-04T17:34:51;32.10;45.90
60701;DHT22;46541;49.894;10.886;2022-08-04T17:37:20;32.00;45.90
60701;DHT22;46541;49.894;10.886;2022-08-04T17:40:12;32.00;46.30
60701;DHT22;46541;49.894;10.886;2022-08-04T17:42:44;32.00;46.70
60701;DHT22;46541;49.894;10.886;2022-08-04T17:45:20;31.90;46.30
60701;DHT22;46541;49.894;10.886;2022-08-04T17:48:17;31.90;46.40
60701;DHT22;46541;49.894;10.886;2022-08-04T17:50:51;31.90;47.00
60701;DHT22;46541;49.894;10.886;2022-08-04T17:53:31;31.80;47.10
60701;DHT22;46541;49.894;10.886;2022-08-04T17:56:35;31.80;47.30
60701;DHT22;46541;49.894;10.886;2022-08-04T17:59:23;31.80;47.30
60701;DHT22;46541;49.894;10.886;2022-08-04T18:02:10;31.70;47.70
60701;DHT22;46541;49.894;10.886;2022-08-04T18:07:37;31.60;48.30
60701;DHT22;46541;49.894;10.886;2022-08-04T18:10:40;31.50;49.20
60701;DHT22;46541;49.894;10.886;2022-08-04T18:13:20;31.40;48.70
60701;DHT22;46541;49.894;10.886;2022-08-04T18:15:48;31.40;48.20
60701;DHT22;46541;49.894;10.886;2022-08-04T18:18:19;31.40;48.50
60701;DHT22;46541;49.894;10.886;2022-08-04T18:20:49;31.30;48.60
60701;DHT22;46541;49.894;10.886;2022-08-04T18:23:16;31.30;48.60
60701;DHT22;46541;49.894;10.886;2022-08-04T18:25:46;31.20;49.70
60701;DHT22;46541;49.894;10.886;2022-08-04T18:28:17;31.20;49.20
60701;DHT22;46541;49.894;10.886;2022-08-04T18:30:52;31.10;49.40
60701;DHT22;46541;49.894;10.886;2022-08-04T18:33:21;31.00;49.50
60701;DHT22;46541;49.894;10.886;2022-08-04T18:36:06;31.00;50.40
60701;DHT22;46541;49.894;10.886;2022-08-04T18:38:53;30.90;49.70
60701;DHT22;46541;49.894;10.886;2022-08-04T18:41:26;30.80;50.20
60701;DHT22;46541;49.894;10.886;2022-08-04T18:43:56;30.70;50.40
60701;DHT22;46541;49.894;10.886;2022-08-04T18:46:25;30.60;50.60
60701;DHT22;46541;49.894;10.886;2022-08-04T18:48:53;30.50;51.30
60701;DHT22;46541;49.894;10.886;2022-08-04T18:51:21;30.50;51.70
60701;DHT22;46541;49.894;10.886;2022-08-04T18:53:56;30.40;52.20
60701;DHT22;46541;49.894;10.886;2022-08-04T18:56:29;30.30;52.70
60701;DHT22;46541;49.894;10.886;2022-08-04T18:59:03;30.20;52.90
60701;DHT22;46541;49.894;10.886;2022-08-04T19:01:36;30.10;53.40
60701;DHT22;46541;49.894;10.886;2022-08-04T19:04:22;30.10;54.10
60701;DHT22;46541;49.894;10.886;2022-08-04T19:07:03;30.00;54.80
60701;DHT22;46541;49.894;10.886;2022-08-04T19:09:50;29.90;55.10
60701;DHT22;46541;49.894;10.886;2022-08-04T19:12:23;29.80;56.80
60701;DHT22;46541;49.894;10.886;2022-08-04T19:15:10;29.70;57.40
60701;DHT22;46541;49.894;10.886;2022-08-04T19:17:38;29.60;57.20
60701;DHT22;46541;49.894;10.886;2022-08-04T19:20:24;29.60;57.10
60701;DHT22;46541;49.894;10.886;2022-08-04T19:22:53;29.40;57.90
60701;DHT22;46541;49.894;10.886;2022-08-04T19:25:40;29.40;58.60
60701;DHT22;46541;49.894;10.886;2022-08-04T19:28:28;29.30;56.10
60701;DHT22;46541;49.894;10.886;2022-08-04T19:30:59;29.30;56.20
60701;DHT22;46541;49.894;10.886;2022-08-04T19:33:26;29.20;57.20
60701;DHT22;46541;49.894;10.886;2022-08-04T19:36:13;29.20;56.90
60701;DHT22;46541;49.894;10.886;2022-08-04T19:38:42;29.10;57.90
60701;DHT22;46541;49.894;10.886;2022-08-04T19:41:10;29.10;56.40
60701;DHT22;46541;49.894;10.886;2022-08-04T19:43:40;29.00;56.70
60701;DHT22;46541;49.894;10.886;2022-08-04T19:46:09;29.00;58.20
60701;DHT22;46541;49.894;10.886;2022-08-04T19:48:38;28.90;58.80
60701;DHT22;46541;49.894;10.886;2022-08-04T19:51:05;28.90;57.50
60701;DHT22;46541;49.894;10.886;2022-08-04T19:53:34;28.80;57.60
60701;DHT22;46541;49.894;10.886;2022-08-04T19:56:04;28.80;58.00
60701;DHT22;46541;49.894;10.886;2022-08-04T19:58:30;28.70;58.10
60701;DHT22;46541;49.894;10.886;2022-08-04T20:00:58;28.70;58.60
60701;DHT22;46541;49.894;10.886;2022-08-04T20:03:25;28.70;59.00
60701;DHT22;46541;49.894;10.886;2022-08-04T20:06:11;28.60;58.60
60701;DHT22;46541;49.894;10.886;2022-08-04T20:08:39;28.50;58.10
60701;DHT22;46541;49.894;10.886;2022-08-04T20:11:14;28.50;58.10
60701;DHT22;46541;49.894;10.886;2022-08-04T20:13:44;28.50;58.70
60701;DHT22;46541;49.894;10.886;2022-08-04T20:16:21;28.40;58.70
60701;DHT22;46541;49.894;10.886;2022-08-04T20:18:56;28.40;59.40
60701;DHT22;46541;49.894;10.886;2022-08-04T20:21:33;28.30;59.10
60701;DHT22;46541;49.894;10.886;2022-08-04T20:24:21;28.30;59.10
60701;DHT22;46541;49.894;10.886;2022-08-04T20:27:12;28.20;59.00